createdAt,value
2022-12-16T00:01:20.242Z,76.73
2022-12-16T00:04:23.237Z,76.75
2022-12-16T00:07:26.249Z,76.73
2022-12-16T00:10:49.175Z,76.75
2022-12-16T00:13:52.802Z,76.79
2022-12-16T00:16:58.183Z,76.81
2022-12-16T00:20:02.942Z,76.84
2022-12-16T00:23:05.945Z,76.87
2022-12-16T00:26:09.881Z,76.91
2022-12-16T00:29:12.928Z,76.93
2022-12-16T00:32:16.022Z,76.97
2022-12-16T00:35:19.056Z,76.96
2022-12-16T00:38:23.790Z,76.99
2022-12-16T00:41:26.763Z,77.01
2022-12-16T00:44:29.777Z,77.02
2022-12-16T00:47:32.769Z,77.01
2022-12-16T00:50:36.608Z,77.02
2022-12-16T00:53:39.608Z,77.03
2022-12-16T00:56:42.542Z,77.03
2022-12-16T00:59:45.593Z,77.05
2022-12-16T01:02:48.999Z,77.07
2022-12-16T01:05:52.047Z,77.07
2022-12-16T01:08:55.657Z,77.12
2022-12-16T01:11:58.683Z,77.13
2022-12-16T01:15:02.369Z,77.09
2022-12-16T01:18:05.479Z,77.13
2022-12-16T01:21:11.347Z,77.21
2022-12-16T01:24:14.375Z,77.23
2022-12-16T01:27:17.633Z,77.14
2022-12-16T01:30:20.713Z,77.10
2022-12-16T01:33:24.353Z,77.10
2022-12-16T01:36:27.625Z,77.12
2022-12-16T01:39:30.829Z,77.16
2022-12-16T01:42:33.840Z,77.19
2022-12-16T01:45:36.921Z,77.22
2022-12-16T01:48:46.134Z,77.24
2022-12-16T01:51:55.358Z,77.25
2022-12-16T01:55:04.205Z,77.26
2022-12-16T01:58:12.222Z,77.29
2022-12-16T02:01:16.832Z,77.31
2022-12-16T02:04:19.858Z,77.33
2022-12-16T02:07:22.878Z,77.37
2022-12-16T02:10:36.093Z,77.40
2022-12-16T02:14:01.456Z,77.44
2022-12-16T02:17:38.396Z,77.45
2022-12-16T02:21:09.230Z,77.44
2022-12-16T02:24:49.552Z,77.45
2022-12-16T02:28:43.724Z,77.48
2022-12-16T02:31:53.839Z,77.50
2022-12-16T02:35:33.448Z,77.49
2022-12-16T02:38:56.032Z,77.52
2022-12-16T02:42:26.528Z,77.53
2022-12-16T02:45:31.375Z,77.53
2022-12-16T02:48:34.630Z,77.55
2022-12-16T02:51:38.702Z,77.54
2022-12-16T02:54:43.178Z,77.58
2022-12-16T02:58:18.928Z,77.59
2022-12-16T03:01:24.675Z,77.61
2022-12-16T03:04:37.324Z,77.62
2022-12-16T03:07:43.610Z,77.62
2022-12-16T03:10:57.416Z,77.63
2022-12-16T03:14:03.367Z,77.66
2022-12-16T03:17:08.551Z,77.66
2022-12-16T03:20:22.195Z,77.70
2022-12-16T03:23:31.578Z,77.72
2022-12-16T03:26:51.718Z,77.75
2022-12-16T03:30:20.419Z,77.79
2022-12-16T03:33:29.640Z,77.85
2022-12-16T03:36:37.999Z,77.86
2022-12-16T03:39:49.956Z,77.87
2022-12-16T03:42:55.465Z,77.89
2022-12-16T03:46:03.695Z,77.91
2022-12-16T03:49:06.678Z,77.92
2022-12-16T03:52:10.079Z,77.95
2022-12-16T03:55:13.131Z,77.96
2022-12-16T03:58:16.198Z,77.97
2022-12-16T04:01:19.259Z,77.97
2022-12-16T04:04:22.428Z,77.96
2022-12-16T04:07:25.472Z,77.96
2022-12-16T04:10:47.155Z,77.95
2022-12-16T04:14:08.711Z,77.94
2022-12-16T04:17:31.901Z,77.93
2022-12-16T04:21:01.689Z,77.89
2022-12-16T04:24:20.484Z,77.86
2022-12-16T04:27:27.751Z,77.86
2022-12-16T04:30:34.905Z,77.87
2022-12-16T04:33:58.615Z,77.90
2022-12-16T04:37:21.511Z,77.91
2022-12-16T04:40:43.260Z,77.89
2022-12-16T04:44:05.399Z,77.89
2022-12-16T04:47:26.722Z,77.88
2022-12-16T04:50:48.277Z,77.87
2022-12-16T04:54:09.564Z,77.88
2022-12-16T04:57:30.895Z,77.90
2022-12-16T05:00:52.285Z,77.88
2022-12-16T05:04:13.638Z,77.87
2022-12-16T05:07:38.477Z,77.87
2022-12-16T05:11:00.086Z,77.88
2022-12-16T05:14:21.857Z,77.88
2022-12-16T05:17:43.503Z,77.88
2022-12-16T05:21:05.188Z,77.88
2022-12-16T05:24:27.127Z,77.85
2022-12-16T05:27:48.648Z,77.86
2022-12-16T05:31:10.160Z,77.85
2022-12-16T05:34:31.535Z,77.85
2022-12-16T05:37:52.985Z,77.83
2022-12-16T05:41:14.584Z,77.79
2022-12-16T05:44:36.118Z,77.81
2022-12-16T05:47:58.299Z,77.81
2022-12-16T05:51:19.950Z,77.77
2022-12-16T05:54:41.430Z,77.79
2022-12-16T05:58:02.831Z,77.81
2022-12-16T06:01:25.331Z,77.78
2022-12-16T06:04:46.848Z,77.74
2022-12-16T06:08:12.464Z,77.69
2022-12-16T06:11:34.144Z,77.66
2022-12-16T06:14:55.663Z,77.63
2022-12-16T06:18:17.206Z,77.60
2022-12-16T06:21:39.187Z,77.60
2022-12-16T06:25:00.854Z,77.57
2022-12-16T06:28:22.962Z,77.54
2022-12-16T06:31:44.693Z,77.54
2022-12-16T06:35:06.431Z,77.54
2022-12-16T06:38:28.179Z,77.56
2022-12-16T06:41:49.871Z,77.57
2022-12-16T06:45:11.449Z,77.59
2022-12-16T06:48:33.090Z,77.60
2022-12-16T06:51:55.003Z,77.61
2022-12-16T06:55:16.688Z,77.62
2022-12-16T06:58:38.364Z,77.63
2022-12-16T07:02:00.064Z,77.65
2022-12-16T07:05:21.990Z,77.68
2022-12-16T07:08:43.653Z,77.70
2022-12-16T07:12:05.276Z,77.73
2022-12-16T07:15:27.267Z,77.75
2022-12-16T07:18:48.928Z,77.75
2022-12-16T07:22:10.705Z,77.75
2022-12-16T07:25:32.330Z,77.72
2022-12-16T07:28:54.514Z,77.69
2022-12-16T07:32:16.062Z,77.69
2022-12-16T07:35:37.466Z,77.67
2022-12-16T07:38:58.859Z,77.65
2022-12-16T07:42:20.462Z,77.66
2022-12-16T07:45:45.269Z,77.66
2022-12-16T07:49:07.093Z,77.64
2022-12-16T07:52:28.918Z,77.62
2022-12-16T07:55:50.613Z,77.61
2022-12-16T07:59:13.057Z,77.61
2022-12-16T08:02:34.821Z,77.60
2022-12-16T08:05:56.609Z,77.58
2022-12-16T08:09:19.859Z,77.55
2022-12-16T08:12:41.504Z,77.50
2022-12-16T08:16:04.570Z,77.48
2022-12-16T08:19:26.281Z,77.45
2022-12-16T08:22:47.808Z,77.44
2022-12-16T08:26:09.483Z,77.46
2022-12-16T08:29:46.379Z,77.45
2022-12-16T08:33:18.309Z,77.46
2022-12-16T08:36:40.880Z,77.51
2022-12-16T08:40:33.577Z,77.55
2022-12-16T08:43:44.188Z,77.55
2022-12-16T08:47:05.820Z,77.56
2022-12-16T08:50:27.516Z,77.54
2022-12-16T08:53:49.062Z,77.53
2022-12-16T08:57:10.826Z,77.57
2022-12-16T09:00:32.866Z,77.61
2022-12-16T09:03:55.508Z,77.63
2022-12-16T09:07:17.104Z,77.67
2022-12-16T09:10:40.537Z,77.68
2022-12-16T09:14:02.395Z,77.66
2022-12-16T09:17:24.183Z,77.69
2022-12-16T09:21:05.648Z,77.72
2022-12-16T09:24:27.862Z,77.76
2022-12-16T09:27:49.363Z,77.81
2022-12-16T09:31:10.872Z,77.84
2022-12-16T09:34:32.568Z,77.86
2022-12-16T09:38:01.744Z,77.84
2022-12-16T09:41:45.186Z,77.86
2022-12-16T09:45:18.388Z,77.87
2022-12-16T09:48:53.922Z,77.90
2022-12-16T09:52:18.842Z,77.94
2022-12-16T09:55:48.437Z,77.95
2022-12-16T09:59:16.824Z,77.93
2022-12-16T10:02:45.610Z,77.92
2022-12-16T10:06:24.022Z,77.98
2022-12-16T10:10:14.110Z,78.00
2022-12-16T10:13:35.970Z,78.05
2022-12-16T10:17:19.792Z,78.10
2022-12-16T10:21:03.398Z,78.15
2022-12-16T10:24:44.153Z,78.19
2022-12-16T10:28:08.060Z,78.21
2022-12-16T10:31:36.862Z,78.14
2022-12-16T10:35:01.579Z,78.08
2022-12-16T10:38:33.445Z,78.00
2022-12-16T10:41:58.264Z,77.95
2022-12-16T10:45:21.726Z,77.90
2022-12-16T10:48:54.923Z,77.89
2022-12-16T10:52:20.206Z,77.85
2022-12-16T10:56:05.535Z,77.81
2022-12-16T10:59:27.586Z,77.76
2022-12-16T11:02:49.601Z,77.61
2022-12-16T11:06:13.846Z,77.54
2022-12-16T11:09:44.673Z,77.50
2022-12-16T11:13:06.473Z,77.34
2022-12-16T11:16:43.500Z,77.10
2022-12-16T11:20:05.482Z,77.02
2022-12-16T11:23:43.525Z,76.70
2022-12-16T11:27:15.398Z,76.55
2022-12-16T11:30:40.662Z,76.44
2022-12-16T11:42:47.119Z,75.97
2022-12-16T11:46:11.139Z,75.64
2022-12-16T11:49:53.121Z,75.42
2022-12-16T11:53:15.856Z,75.22
2022-12-16T11:56:45.531Z,75.02
2022-12-16T12:00:11.730Z,74.89
2022-12-16T12:03:41.396Z,74.78
2022-12-16T12:07:18.580Z,74.69
2022-12-16T12:11:03.195Z,74.62
2022-12-16T12:15:07.348Z,74.58
2022-12-16T12:18:57.310Z,74.51
2022-12-16T12:22:57.121Z,74.47
2022-12-16T12:26:29.844Z,74.47
2022-12-16T12:30:16.313Z,74.53
2022-12-16T12:33:38.392Z,74.62
2022-12-16T12:37:26.350Z,74.67
2022-12-16T12:41:05.561Z,74.71
2022-12-16T12:44:58.626Z,74.73
2022-12-16T12:49:09.107Z,74.74
2022-12-16T12:52:49.973Z,74.81
2022-12-16T12:57:08.427Z,74.92
2022-12-16T13:00:37.002Z,75.03
2022-12-16T13:04:14.181Z,75.00
2022-12-16T13:07:36.657Z,74.98
2022-12-16T13:10:58.262Z,74.98
2022-12-16T13:14:20.077Z,75.00
2022-12-16T13:17:42.053Z,75.01
2022-12-16T13:21:05.180Z,75.03
2022-12-16T13:24:48.601Z,75.09
2022-12-16T13:28:15.307Z,75.14
2022-12-16T13:31:38.118Z,75.18
2022-12-16T13:34:59.682Z,75.16
2022-12-16T13:38:24.644Z,75.17
2022-12-16T13:41:46.327Z,75.15
2022-12-16T13:45:07.909Z,75.20
2022-12-16T13:48:46.720Z,75.21
2022-12-16T13:52:18.151Z,75.20
2022-12-16T13:55:46.881Z,75.23
2022-12-16T13:59:19.487Z,75.30
2022-12-16T14:02:51.828Z,75.30
2022-12-16T14:06:17.536Z,75.27
2022-12-16T14:10:01.476Z,75.29
2022-12-16T14:13:34.065Z,75.36
2022-12-16T14:17:05.227Z,75.40
2022-12-16T14:20:30.019Z,75.49
2022-12-16T14:24:06.965Z,75.56
2022-12-16T14:27:37.681Z,75.61
2022-12-16T14:30:59.975Z,75.63
2022-12-16T14:34:22.907Z,75.66
2022-12-16T14:37:56.280Z,75.69
2022-12-16T14:41:18.202Z,75.75
2022-12-16T14:44:42.644Z,75.79
2022-12-16T14:48:04.145Z,75.84
2022-12-16T14:51:50.544Z,75.86
2022-12-16T14:55:12.105Z,75.87
2022-12-16T14:58:43.014Z,75.97
2022-12-16T15:02:05.326Z,76.01
2022-12-16T15:05:27.491Z,76.03
2022-12-16T15:08:53.847Z,76.01
2022-12-16T15:12:17.288Z,76.05
2022-12-16T15:15:49.834Z,76.11
2022-12-16T15:19:19.648Z,76.15
2022-12-16T15:22:42.562Z,76.21
2022-12-16T15:26:08.597Z,76.24
2022-12-16T15:30:02.629Z,76.28
2022-12-16T15:33:25.307Z,76.32
2022-12-16T15:37:04.815Z,76.36
2022-12-16T15:40:48.364Z,76.38
2022-12-16T15:44:10.509Z,76.38
2022-12-16T15:47:51.558Z,76.42
2022-12-16T15:51:13.103Z,76.45
2022-12-16T15:54:40.575Z,76.48
2022-12-16T15:58:15.284Z,76.52
2022-12-16T16:01:47.087Z,76.59
2022-12-16T16:05:12.683Z,76.60
2022-12-16T16:08:34.457Z,76.61
2022-12-16T16:11:56.107Z,76.65
2022-12-16T16:15:17.943Z,76.67
2022-12-16T16:18:40.045Z,76.68
2022-12-16T16:22:02.259Z,76.69
2022-12-16T16:25:24.409Z,76.72
2022-12-16T16:28:45.731Z,76.73
2022-12-16T16:32:07.385Z,76.75
2022-12-16T16:35:29.015Z,76.77
2022-12-16T16:38:50.403Z,76.79
2022-12-16T16:42:14.719Z,76.80
2022-12-16T16:45:36.227Z,76.84
2022-12-16T16:48:58.331Z,76.87
2022-12-16T16:52:19.802Z,76.88
2022-12-16T16:55:42.846Z,76.87
2022-12-16T16:59:04.575Z,76.87
2022-12-16T17:02:41.111Z,76.91
2022-12-16T17:06:03.334Z,76.91
2022-12-16T17:09:24.805Z,76.91
2022-12-16T17:12:48.690Z,76.91
2022-12-16T17:16:10.476Z,76.93
2022-12-16T17:19:32.285Z,76.93
2022-12-16T17:22:53.996Z,76.92
2022-12-16T17:26:19.609Z,76.93
2022-12-16T17:29:43.082Z,76.94
2022-12-16T17:33:05.110Z,76.93
2022-12-16T17:36:34.658Z,76.94
2022-12-16T17:39:56.302Z,76.95
2022-12-16T17:43:17.956Z,76.96
2022-12-16T17:46:39.261Z,76.96
2022-12-16T17:50:00.849Z,76.98
2022-12-16T17:53:22.866Z,77.01
2022-12-16T17:56:44.565Z,77.03
2022-12-16T18:00:06.022Z,77.09
2022-12-16T18:03:34.502Z,77.13
2022-12-16T18:06:56.714Z,77.15
2022-12-16T18:10:18.294Z,77.16
2022-12-16T18:13:39.981Z,77.17
2022-12-16T18:17:01.550Z,77.20
2022-12-16T18:20:23.537Z,77.22
2022-12-16T18:23:48.338Z,77.23
2022-12-16T18:27:09.887Z,77.26
2022-12-16T18:30:31.916Z,77.29
2022-12-16T18:33:53.349Z,77.30
2022-12-16T18:37:15.049Z,77.33
2022-12-16T18:40:36.333Z,77.33
2022-12-16T18:43:57.620Z,77.32
2022-12-16T18:47:19.377Z,77.32
2022-12-16T18:50:41.013Z,77.33
2022-12-16T18:54:02.757Z,77.34
2022-12-16T18:57:24.406Z,77.34
2022-12-16T19:00:46.043Z,77.35
2022-12-16T19:04:08.010Z,77.37
2022-12-16T19:07:33.410Z,77.40
2022-12-16T19:10:55.282Z,77.41
2022-12-16T19:14:16.991Z,77.44
2022-12-16T19:17:49.202Z,77.43
2022-12-16T19:21:15.271Z,77.41
2022-12-16T19:24:39.583Z,77.44
2022-12-16T19:28:00.963Z,77.47
2022-12-16T19:31:22.590Z,77.47
2022-12-16T19:34:44.402Z,77.49
2022-12-16T19:38:06.126Z,77.49
2022-12-16T19:41:35.928Z,77.51
2022-12-16T19:44:57.658Z,77.52
2022-12-16T19:48:23.657Z,77.58
2022-12-16T19:51:45.397Z,77.58
2022-12-16T19:55:07.079Z,77.57
2022-12-16T19:58:28.704Z,77.58
2022-12-16T20:01:50.307Z,77.59
2022-12-16T20:05:13.424Z,77.59
2022-12-16T20:08:35.148Z,77.58
2022-12-16T20:11:57.403Z,77.58
2022-12-16T20:15:19.475Z,77.57
2022-12-16T20:18:41.291Z,77.57
2022-12-16T20:22:06.833Z,77.57
2022-12-16T20:25:29.283Z,77.57
2022-12-16T20:28:55.322Z,77.57
2022-12-16T20:32:17.700Z,77.56
2022-12-16T20:35:39.487Z,77.59
2022-12-16T20:39:02.020Z,77.62
2022-12-16T20:42:29.816Z,77.63
2022-12-16T20:45:51.837Z,77.64
2022-12-16T20:49:13.500Z,77.65
2022-12-16T20:52:35.053Z,77.64
2022-12-16T20:55:56.653Z,77.65
2022-12-16T20:59:18.041Z,77.64
2022-12-16T21:02:39.827Z,77.64
2022-12-16T21:06:01.997Z,77.63
2022-12-16T21:09:23.572Z,77.67
2022-12-16T21:12:45.195Z,77.69
2022-12-16T21:16:06.545Z,77.68
2022-12-16T21:19:33.365Z,77.70
2022-12-16T21:22:55.450Z,77.72
2022-12-16T21:26:18.392Z,77.72
2022-12-16T21:29:40.041Z,77.72
2022-12-16T21:33:01.754Z,77.74
2022-12-16T21:36:24.510Z,77.76
2022-12-16T21:39:46.570Z,77.79
2022-12-16T21:43:08.277Z,77.81
2022-12-16T21:46:30.044Z,77.83
2022-12-16T21:49:56.095Z,77.81
2022-12-16T21:53:17.926Z,77.80
2022-12-16T21:56:39.705Z,77.78
2022-12-16T22:00:01.454Z,77.77
2022-12-16T22:03:31.845Z,77.77
2022-12-16T22:06:53.537Z,77.77
2022-12-16T22:10:15.285Z,77.77
2022-12-16T22:13:37.670Z,77.77
2022-12-16T22:17:19.578Z,77.74
2022-12-16T22:20:41.140Z,77.71
2022-12-16T22:24:03.137Z,77.71
2022-12-16T22:27:24.763Z,77.72
2022-12-16T22:30:46.517Z,77.73
2022-12-16T22:34:09.748Z,77.74
2022-12-16T22:37:31.460Z,77.76
2022-12-16T22:40:53.378Z,77.76
2022-12-16T22:44:18.692Z,77.76
2022-12-16T22:47:40.436Z,77.74
2022-12-16T22:51:02.306Z,77.75
2022-12-16T22:54:23.783Z,77.73
2022-12-16T22:57:50.849Z,77.74
2022-12-16T23:01:12.758Z,77.76
2022-12-16T23:04:34.526Z,77.74
2022-12-16T23:07:56.511Z,77.73
2022-12-16T23:11:18.622Z,77.74
2022-12-16T23:14:42.965Z,77.76
2022-12-16T23:18:04.977Z,77.75
2022-12-16T23:21:33.270Z,77.79
2022-12-16T23:24:54.934Z,77.81
2022-12-16T23:28:18.605Z,77.82
2022-12-16T23:31:40.429Z,77.83
2022-12-16T23:35:02.240Z,77.83
2022-12-16T23:38:26.067Z,77.81
2022-12-16T23:41:47.732Z,77.82
2022-12-16T23:45:09.415Z,77.81
2022-12-16T23:48:31.612Z,77.80
2022-12-16T23:51:52.851Z,77.80
2022-12-16T23:55:15.225Z,77.81
2022-12-16T23:58:36.918Z,77.80
